createdAt,value
2023-04-08T16:17:06.708Z,8.25
2023-04-08T16:19:33.948Z,7.63
2023-04-08T16:22:01.196Z,7.47
2023-04-08T16:24:28.476Z,8.63
2023-04-08T16:26:55.665Z,25.98
2023-04-08T16:29:22.945Z,12.38
2023-04-08T16:31:51.343Z,8.30
2023-04-08T16:34:20.743Z,8.10
2023-04-08T16:36:48.056Z,9.88
2023-04-08T16:39:15.580Z,7.78
2023-04-08T16:41:42.820Z,7.07
2023-04-08T16:44:10.448Z,7.15
2023-04-08T16:46:38.134Z,8.00
2023-04-08T16:49:05.406Z,8.70
2023-04-08T16:51:32.701Z,7.75
2023-04-08T16:54:00.213Z,7.05
2023-04-08T16:56:27.792Z,6.38
2023-04-08T16:58:55.088Z,8.25
2023-04-08T17:01:22.465Z,7.63
2023-04-08T17:03:50.392Z,8.55
2023-04-08T17:06:17.921Z,6.68
2023-04-08T17:08:45.329Z,7.93
2023-04-08T17:11:14.343Z,7.40
2023-04-08T17:13:43.125Z,7.47
2023-04-08T17:16:15.153Z,6.70
2023-04-08T17:18:43.164Z,8.48
2023-04-08T17:21:12.022Z,6.75
2023-04-08T17:23:39.187Z,7.88
2023-04-08T17:26:07.679Z,7.03
2023-04-08T17:28:35.528Z,6.80
2023-04-08T17:31:03.141Z,8.43
2023-04-08T17:33:30.407Z,7.93
2023-04-08T17:35:57.671Z,6.85
2023-04-08T17:38:25.043Z,7.97
2023-04-08T17:40:52.244Z,9.55
2023-04-08T17:43:19.525Z,10.55
2023-04-08T17:45:47.102Z,8.73
2023-04-08T17:48:14.632Z,8.18
2023-04-08T17:50:41.899Z,9.43
2023-04-08T17:53:09.125Z,10.45
2023-04-08T17:55:36.297Z,11.75
2023-04-08T17:58:04.437Z,8.20
2023-04-08T18:00:31.706Z,9.30
2023-04-08T18:02:59.112Z,9.55
2023-04-08T18:05:27.364Z,10.48
2023-04-08T18:07:54.555Z,9.52
2023-04-08T18:10:23.175Z,10.85
2023-04-08T18:12:54.681Z,11.23
2023-04-08T18:15:25.096Z,11.23
2023-04-08T18:17:52.355Z,10.30
2023-04-08T18:20:19.819Z,9.10
2023-04-08T18:22:46.994Z,11.50
2023-04-08T18:25:14.432Z,9.73
2023-04-08T18:27:41.656Z,13.55
2023-04-08T18:30:09.424Z,12.32
2023-04-08T18:32:36.711Z,13.68
2023-04-08T18:35:04.073Z,15.50
2023-04-08T18:37:31.712Z,13.95
2023-04-08T18:39:59.825Z,16.63
2023-04-08T18:42:27.211Z,14.15
2023-04-08T18:44:54.410Z,15.52
2023-04-08T18:47:21.872Z,16.40
2023-04-08T18:49:49.096Z,17.98
2023-04-08T18:52:16.296Z,16.13
2023-04-08T18:54:43.470Z,18.10
2023-04-08T18:57:10.850Z,18.42
2023-04-08T18:59:38.046Z,17.90
2023-04-08T19:02:05.425Z,18.08
2023-04-08T19:04:33.534Z,24.17
2023-04-08T19:07:00.808Z,18.00
2023-04-08T19:09:28.007Z,20.23
2023-04-08T19:11:55.468Z,18.48
2023-04-08T19:14:23.062Z,18.63
2023-04-08T19:16:50.359Z,17.65
2023-04-08T19:19:17.530Z,17.35
2023-04-08T19:21:44.841Z,18.35
2023-04-08T19:24:12.173Z,18.00
2023-04-08T19:26:39.456Z,18.10
2023-04-08T19:29:06.681Z,17.95
2023-04-08T19:31:33.994Z,17.77
2023-04-08T19:34:01.346Z,16.98
2023-04-08T19:36:28.696Z,16.73
2023-04-08T19:38:55.968Z,18.88
2023-04-08T19:41:23.612Z,17.95
2023-04-08T19:43:51.077Z,20.48
2023-04-08T19:46:18.544Z,15.95
2023-04-08T19:48:46.545Z,23.73
2023-04-08T19:51:22.671Z,21.52
2023-04-08T19:53:51.167Z,19.95
2023-04-08T19:56:18.652Z,18.65
2023-04-08T19:58:46.522Z,19.35
2023-04-08T20:01:14.334Z,17.17
2023-04-08T20:03:42.321Z,16.52
2023-04-08T20:06:09.706Z,17.38
2023-04-08T20:08:37.069Z,15.45
2023-04-08T20:11:04.870Z,15.65
2023-04-08T20:13:32.132Z,18.48
2023-04-08T20:15:59.388Z,17.63
2023-04-08T20:18:27.341Z,15.07
2023-04-08T20:20:54.916Z,17.85
2023-04-08T20:23:22.723Z,17.08
2023-04-08T20:25:50.405Z,17.45
2023-04-08T20:28:18.933Z,15.77
2023-04-08T20:30:46.542Z,17.55
2023-04-08T20:33:13.881Z,17.60
2023-04-08T20:35:41.494Z,16.63
2023-04-08T20:38:08.801Z,15.63
2023-04-08T20:40:36.161Z,17.15
2023-04-08T20:43:03.414Z,15.45
2023-04-08T20:45:30.846Z,19.08
2023-04-08T20:47:58.138Z,20.00
2023-04-08T20:50:25.527Z,19.25
2023-04-08T20:52:53.027Z,17.58
2023-04-08T20:55:20.395Z,14.27
2023-04-08T20:57:48.074Z,17.42
2023-04-08T21:00:17.065Z,18.50
2023-04-08T21:02:45.109Z,18.25
2023-04-08T21:05:12.459Z,16.20
2023-04-08T21:07:44.496Z,16.52
2023-04-08T21:10:15.128Z,15.40
2023-04-08T21:12:42.307Z,17.52
2023-04-08T21:15:10.207Z,17.52
2023-04-08T21:17:37.476Z,16.25
2023-04-08T21:20:05.554Z,17.08
2023-04-08T21:22:32.920Z,16.17
2023-04-08T21:25:00.144Z,16.67
2023-04-08T21:27:28.942Z,17.63
2023-04-08T21:29:56.333Z,16.45
2023-04-08T21:32:23.875Z,17.27
2023-04-08T21:34:54.265Z,16.63
2023-04-08T21:37:22.785Z,17.13
2023-04-08T21:39:50.345Z,17.10
2023-04-08T21:42:17.860Z,16.75
2023-04-08T21:44:45.020Z,17.75
2023-04-08T21:47:12.221Z,18.58
2023-04-08T21:49:39.448Z,19.67
2023-04-08T21:52:06.932Z,17.67
2023-04-08T21:54:34.171Z,17.88
2023-04-08T21:57:01.844Z,17.70
2023-04-08T21:59:29.164Z,16.90
2023-04-08T22:01:56.657Z,15.70
2023-04-08T22:04:23.963Z,18.00
2023-04-08T22:06:51.327Z,16.48
2023-04-08T22:09:19.554Z,14.85
2023-04-08T22:11:46.913Z,16.58
2023-04-08T22:14:14.227Z,14.75
2023-04-08T22:16:41.823Z,14.57
2023-04-08T22:19:09.099Z,15.45
2023-04-08T22:21:36.472Z,15.43
2023-04-08T22:24:03.797Z,14.10
2023-04-08T22:26:31.085Z,13.57
2023-04-08T22:28:58.379Z,14.43
2023-04-08T22:31:25.704Z,13.88
2023-04-08T22:33:52.962Z,15.38
2023-04-08T22:36:20.523Z,13.98
2023-04-08T22:38:47.931Z,15.77
2023-04-08T22:41:22.094Z,14.50
2023-04-08T22:43:50.254Z,14.23
2023-04-08T22:46:18.643Z,15.65
2023-04-08T22:48:46.738Z,17.45
2023-04-08T22:51:14.119Z,17.52
2023-04-08T22:53:41.782Z,14.50
2023-04-08T22:56:09.190Z,21.40
2023-04-08T22:58:36.434Z,14.85
2023-04-08T23:01:11.775Z,15.48
2023-04-08T23:03:39.259Z,15.13
2023-04-08T23:06:06.503Z,16.63
2023-04-08T23:08:33.727Z,15.18
2023-04-08T23:11:01.096Z,18.05
2023-04-08T23:13:28.473Z,16.17
2023-04-08T23:15:55.765Z,17.85
2023-04-08T23:18:23.066Z,16.73
2023-04-08T23:20:53.981Z,15.20
2023-04-08T23:23:22.038Z,15.85
2023-04-08T23:25:49.371Z,16.15
2023-04-08T23:28:16.695Z,16.90
2023-04-08T23:30:44.094Z,14.52
2023-04-08T23:33:11.341Z,16.45
2023-04-08T23:35:42.239Z,14.23
2023-04-08T23:38:09.623Z,15.80
2023-04-08T23:40:36.973Z,16.67
2023-04-08T23:43:04.318Z,17.75
2023-04-08T23:45:31.567Z,17.42
2023-04-08T23:47:59.063Z,17.33
2023-04-08T23:50:26.517Z,15.00
2023-04-08T23:52:53.808Z,17.10
2023-04-08T23:55:21.244Z,13.52
2023-04-08T23:57:50.863Z,15.52
